createdAt,value
2018-04-22T00:00:41.277Z,62.51
2018-04-22T00:03:09.708Z,62.31
2018-04-22T00:05:38.172Z,62.23
2018-04-22T00:08:06.589Z,62.47
2018-04-22T00:10:35.005Z,62.92
2018-04-22T00:13:03.469Z,62.70
2018-04-22T00:15:31.885Z,62.71
2018-04-22T00:18:00.300Z,63.27
2018-04-22T00:20:28.765Z,63.25
2018-04-22T00:22:57.180Z,63.35
2018-04-22T00:25:25.649Z,63.48
2018-04-22T00:27:54.126Z,63.06
2018-04-22T00:30:22.540Z,63.53
2018-04-22T00:32:50.963Z,63.84
2018-04-22T00:35:19.429Z,63.79
2018-04-22T00:37:47.853Z,63.49
2018-04-22T00:40:16.282Z,63.37
2018-04-22T00:42:44.742Z,63.64
2018-04-22T00:45:13.153Z,63.68
2018-04-22T00:47:41.575Z,63.89
2018-04-22T00:50:10.044Z,64.26
2018-04-22T00:52:38.464Z,64.59
2018-04-22T00:55:06.913Z,64.38
2018-04-22T00:57:35.372Z,64.14
2018-04-22T01:00:03.833Z,64.16
2018-04-22T01:02:32.264Z,64.91
2018-04-22T01:05:00.735Z,64.43
2018-04-22T01:07:29.152Z,64.59
2018-04-22T01:09:57.569Z,64.70
2018-04-22T01:12:26.041Z,64.67
2018-04-22T01:14:54.465Z,64.86
2018-04-22T01:17:22.889Z,65.10
2018-04-22T01:19:51.377Z,65.02
2018-04-22T01:22:19.788Z,65.32
2018-04-22T01:24:48.209Z,64.96
2018-04-22T01:27:16.673Z,65.88
2018-04-22T01:29:45.102Z,66.39
2018-04-22T01:32:13.541Z,66.58
2018-04-22T01:34:42.034Z,66.39
2018-04-22T01:37:10.462Z,66.90
2018-04-22T01:39:38.888Z,67.36
2018-04-22T01:42:07.347Z,67.19
2018-04-22T01:44:36.257Z,67.24
2018-04-22T01:47:04.685Z,67.06
2018-04-22T01:49:33.167Z,67.04
2018-04-22T01:52:01.597Z,67.23
2018-04-22T01:54:30.022Z,67.21
2018-04-22T01:56:58.493Z,67.26
2018-04-22T01:59:26.920Z,67.46
2018-04-22T02:01:55.337Z,67.74
2018-04-22T02:04:23.803Z,67.95
2018-04-22T02:06:52.234Z,67.76
2018-04-22T02:09:20.672Z,67.72
2018-04-22T02:11:49.145Z,67.70
2018-04-22T02:14:17.560Z,67.83
2018-04-22T02:16:45.985Z,68.96
2018-04-22T02:19:14.466Z,68.66
2018-04-22T02:21:42.891Z,69.07
2018-04-22T02:24:11.304Z,68.75
2018-04-22T02:26:39.791Z,69.02
2018-04-22T02:29:08.215Z,68.66
2018-04-22T02:31:36.652Z,68.61
2018-04-22T02:34:05.145Z,68.63
2018-04-22T02:36:33.555Z,69.24
2018-04-22T02:39:01.992Z,68.80
2018-04-22T02:41:30.489Z,68.77
2018-04-22T02:43:58.910Z,68.65
2018-04-22T02:46:27.317Z,68.97
2018-04-22T02:48:55.816Z,68.97
2018-04-22T02:51:24.255Z,68.96
2018-04-22T02:53:52.672Z,68.80
2018-04-22T02:56:21.164Z,68.87
2018-04-22T02:58:49.583Z,68.81
2018-04-22T03:01:18.013Z,69.50
2018-04-22T03:03:46.492Z,69.38
2018-04-22T03:06:14.930Z,69.41
2018-04-22T03:08:43.348Z,69.91
2018-04-22T03:11:11.804Z,70.64
2018-04-22T03:13:40.218Z,69.73
2018-04-22T03:16:08.632Z,69.95
2018-04-22T03:18:37.104Z,69.91
2018-04-22T03:21:05.525Z,69.72
2018-04-22T03:23:33.948Z,70.33
2018-04-22T03:26:02.412Z,69.98
2018-04-22T03:28:30.845Z,70.02
2018-04-22T03:30:59.269Z,69.48
2018-04-22T03:33:27.732Z,69.24
2018-04-22T03:35:56.156Z,69.31
2018-04-22T03:38:24.585Z,69.56
2018-04-22T03:40:53.060Z,69.46
2018-04-22T03:43:21.484Z,69.80
2018-04-22T03:45:49.911Z,69.73
2018-04-22T03:48:18.407Z,69.85
2018-04-22T03:50:46.821Z,70.07
2018-04-22T03:53:15.244Z,70.64
2018-04-22T03:55:43.713Z,70.24
2018-04-22T03:58:12.131Z,70.19
2018-04-22T04:00:40.561Z,70.16
2018-04-22T04:03:09.029Z,70.50
2018-04-22T04:05:37.445Z,70.78
2018-04-22T04:08:05.868Z,71.00
2018-04-22T04:10:34.330Z,71.10
2018-04-22T04:13:02.754Z,71.22
2018-04-22T04:15:31.174Z,71.61
2018-04-22T04:21:23.485Z,71.64
2018-04-22T04:27:25.480Z,71.88
2018-04-22T04:29:53.949Z,71.93
2018-04-22T04:32:22.410Z,71.69
2018-04-22T04:34:50.829Z,71.92
2018-04-22T04:37:19.312Z,72.04
2018-04-22T04:39:47.733Z,72.78
2018-04-22T04:42:16.149Z,72.92
2018-04-22T04:44:44.623Z,72.82
2018-04-22T04:47:13.055Z,72.66
2018-04-22T04:49:41.478Z,72.69
2018-04-22T04:52:09.928Z,72.70
2018-04-22T04:54:38.368Z,72.85
2018-04-22T04:57:06.792Z,72.78
2018-04-22T04:59:35.268Z,72.70
2018-04-22T05:02:03.725Z,73.12
2018-04-22T05:04:32.144Z,73.04
2018-04-22T05:07:00.616Z,73.37
2018-04-22T05:09:29.025Z,73.46
2018-04-22T05:11:57.444Z,73.69
2018-04-22T05:14:25.924Z,73.47
2018-04-22T05:16:54.345Z,73.56
2018-04-22T05:19:22.779Z,73.32
2018-04-22T05:21:51.237Z,73.47
2018-04-22T05:24:20.049Z,73.15
2018-04-22T05:26:48.469Z,73.06
2018-04-22T05:29:16.929Z,72.85
2018-04-22T05:31:45.351Z,72.81
2018-04-22T05:34:13.766Z,72.55
2018-04-22T05:36:42.233Z,72.59
2018-04-22T05:39:10.644Z,72.22
2018-04-22T05:41:39.066Z,71.81
2018-04-22T05:44:07.548Z,71.46
2018-04-22T05:46:35.972Z,71.08
2018-04-22T05:49:04.388Z,70.90
2018-04-22T05:51:32.844Z,70.50
2018-04-22T05:54:01.265Z,70.52
2018-04-22T05:56:29.676Z,70.54
2018-04-22T05:58:58.149Z,70.67
2018-04-22T06:01:26.569Z,70.37
2018-04-22T06:03:54.987Z,70.17
2018-04-22T06:06:23.462Z,70.24
2018-04-22T06:08:51.881Z,70.41
2018-04-22T06:11:20.345Z,69.76
2018-04-22T06:13:48.808Z,69.48
2018-04-22T06:16:17.249Z,68.64
2018-04-22T06:18:45.668Z,68.86
2018-04-22T06:21:14.128Z,68.53
2018-04-22T06:23:42.548Z,69.16
2018-04-22T06:26:10.980Z,69.45
2018-04-22T06:28:39.444Z,68.81
2018-04-22T06:31:07.879Z,68.53
2018-04-22T06:33:36.328Z,67.72
2018-04-22T06:36:04.817Z,67.06
2018-04-22T06:38:33.234Z,66.91
2018-04-22T06:41:01.644Z,67.03
2018-04-22T06:43:30.104Z,66.97
2018-04-22T06:45:58.530Z,67.26
2018-04-22T06:48:26.940Z,67.73
2018-04-22T06:50:55.408Z,68.13
2018-04-22T06:53:23.825Z,66.05
2018-04-22T06:55:52.260Z,62.62
2018-04-22T06:58:20.724Z,59.78
2018-04-22T07:00:49.155Z,59.21
2018-04-22T07:03:17.580Z,59.45
2018-04-22T07:05:46.064Z,60.03
2018-04-22T07:08:14.495Z,59.62
2018-04-22T07:10:43.232Z,59.74
2018-04-22T07:13:11.705Z,59.66
2018-04-22T07:15:40.154Z,59.24
2018-04-22T07:18:08.565Z,58.82
2018-04-22T07:20:37.046Z,58.49
2018-04-22T07:23:05.484Z,58.37
2018-04-22T07:25:33.914Z,57.96
2018-04-22T07:28:02.376Z,57.47
2018-04-22T07:30:30.796Z,57.85
2018-04-22T07:32:59.201Z,56.19
2018-04-22T07:35:27.662Z,56.76
2018-04-22T07:37:56.188Z,55.84
2018-04-22T07:40:24.633Z,55.74
2018-04-22T07:42:53.101Z,55.93
2018-04-22T07:45:21.518Z,55.09
2018-04-22T07:47:49.936Z,55.90
2018-04-22T07:50:18.389Z,55.99
2018-04-22T07:52:46.806Z,55.63
2018-04-22T07:55:15.229Z,55.45
2018-04-22T07:57:43.703Z,56.84
2018-04-22T08:00:12.356Z,54.69
2018-04-22T08:02:40.792Z,54.04
2018-04-22T08:05:09.303Z,54.09
2018-04-22T08:07:37.721Z,55.51
2018-04-22T08:10:06.189Z,54.12
2018-04-22T08:12:34.652Z,53.11
2018-04-22T08:15:03.093Z,53.22
2018-04-22T08:17:31.567Z,52.86
2018-04-22T08:20:00.105Z,51.92
2018-04-22T08:22:28.543Z,53.09
2018-04-22T08:24:57.077Z,53.38
2018-04-22T08:27:25.553Z,53.42
2018-04-22T08:29:54.000Z,52.92
2018-04-22T08:32:22.414Z,53.41
2018-04-22T08:34:50.890Z,53.79
2018-04-22T08:37:19.315Z,54.36
2018-04-22T08:39:47.742Z,54.84
2018-04-22T08:42:16.194Z,55.06
2018-04-22T08:44:44.616Z,55.48
2018-04-22T08:47:13.112Z,56.41
2018-04-22T08:49:41.564Z,56.79
2018-04-22T08:52:10.054Z,56.74
2018-04-22T08:54:38.472Z,56.76
2018-04-22T08:57:06.921Z,56.91
2018-04-22T08:59:35.347Z,57.42
2018-04-22T09:02:03.766Z,57.86
2018-04-22T09:04:32.556Z,57.92
2018-04-22T09:07:00.977Z,58.10
2018-04-22T09:09:29.402Z,56.65
2018-04-22T09:11:57.876Z,57.07
2018-04-22T09:14:26.302Z,55.82
2018-04-22T09:16:54.742Z,56.11
2018-04-22T09:19:23.219Z,56.31
2018-04-22T09:21:51.640Z,56.08
2018-04-22T09:24:20.072Z,55.78
2018-04-22T09:26:48.562Z,55.36
2018-04-22T09:29:17.025Z,55.48
2018-04-22T09:31:45.480Z,55.93
2018-04-22T09:34:13.929Z,54.19
2018-04-22T09:36:42.357Z,53.49
2018-04-22T09:39:10.818Z,53.64
2018-04-22T09:41:39.289Z,53.55
2018-04-22T09:44:07.707Z,53.50
2018-04-22T09:46:36.136Z,53.75
2018-04-22T09:49:04.613Z,52.58
2018-04-22T09:51:33.037Z,53.60
2018-04-22T09:54:01.489Z,51.17
2018-04-22T09:56:29.965Z,52.03
2018-04-22T09:58:58.389Z,51.72
2018-04-22T10:01:32.533Z,51.84
2018-04-22T10:04:00.973Z,52.71
2018-04-22T10:06:29.388Z,52.94
2018-04-22T10:08:57.856Z,53.56
2018-04-22T10:11:26.281Z,53.04
2018-04-22T10:13:54.697Z,52.95
2018-04-22T10:16:23.173Z,53.35
2018-04-22T10:18:51.598Z,54.51
2018-04-22T10:21:20.057Z,54.32
2018-04-22T10:23:48.558Z,54.93
2018-04-22T10:26:17.017Z,54.54
2018-04-22T10:28:45.444Z,54.55
2018-04-22T10:31:13.906Z,55.18
2018-04-22T10:33:42.340Z,55.24
2018-04-22T10:36:10.808Z,54.27
2018-04-22T10:38:39.277Z,54.63
2018-04-22T10:41:07.704Z,54.48
2018-04-22T10:43:36.129Z,54.98
2018-04-22T10:46:04.593Z,54.77
2018-04-22T10:48:33.014Z,54.88
2018-04-22T10:51:01.430Z,54.34
2018-04-22T10:53:29.925Z,53.37
2018-04-22T10:55:58.345Z,52.75
2018-04-22T10:58:26.780Z,52.42
2018-04-22T11:00:55.248Z,52.08
2018-04-22T11:03:23.672Z,51.43
2018-04-22T11:05:52.132Z,52.23
2018-04-22T11:08:20.600Z,52.33
2018-04-22T11:10:49.069Z,51.56
2018-04-22T11:13:17.501Z,52.23
2018-04-22T11:15:46.017Z,50.31
2018-04-22T11:18:14.439Z,50.00
2018-04-22T11:20:42.872Z,50.20
2018-04-22T11:23:11.340Z,50.17
2018-04-22T11:25:39.761Z,50.82
2018-04-22T11:28:08.199Z,50.24
2018-04-22T11:30:36.793Z,50.06
2018-04-22T11:33:05.216Z,51.70
2018-04-22T11:35:33.657Z,50.86
2018-04-22T11:38:02.164Z,49.73
2018-04-22T11:40:30.589Z,50.00
2018-04-22T11:42:59.032Z,50.52
2018-04-22T11:45:27.512Z,49.90
2018-04-22T11:47:55.929Z,49.81
2018-04-22T11:50:24.348Z,49.92
2018-04-22T11:52:52.816Z,49.24
2018-04-22T11:55:21.243Z,48.77
2018-04-22T11:57:49.672Z,48.24
2018-04-22T12:00:18.204Z,48.83
2018-04-22T12:02:46.656Z,49.06
2018-04-22T12:05:15.119Z,47.76
2018-04-22T12:07:43.593Z,47.47
2018-04-22T12:10:12.020Z,47.10
2018-04-22T12:12:40.454Z,48.36
2018-04-22T12:15:08.940Z,46.89
2018-04-22T12:17:37.372Z,47.19
2018-04-22T12:20:05.814Z,47.66
2018-04-22T12:22:34.284Z,46.77
2018-04-22T12:25:02.728Z,46.70
2018-04-22T12:27:31.180Z,46.88
2018-04-22T12:29:59.652Z,46.17
2018-04-22T12:32:28.087Z,45.93
2018-04-22T12:34:56.536Z,45.85
2018-04-22T12:37:25.017Z,45.30
2018-04-22T12:39:53.438Z,45.62
2018-04-22T12:42:21.880Z,45.94
2018-04-22T12:44:50.356Z,46.23
2018-04-22T12:47:18.797Z,44.43
2018-04-22T12:49:47.221Z,45.38
2018-04-22T12:52:15.704Z,45.28
2018-04-22T12:54:44.125Z,44.95
2018-04-22T12:57:12.554Z,45.63
2018-04-22T12:59:41.017Z,45.89
2018-04-22T13:02:09.440Z,44.50
2018-04-22T13:04:37.884Z,44.64
2018-04-22T13:07:06.364Z,44.56
2018-04-22T13:09:34.787Z,44.84
2018-04-22T13:12:03.233Z,44.45
2018-04-22T13:14:31.703Z,45.14
2018-04-22T13:17:00.128Z,44.81
2018-04-22T13:19:28.557Z,44.85
2018-04-22T13:21:57.016Z,45.36
2018-04-22T13:24:25.467Z,46.73
2018-04-22T13:26:53.905Z,46.27
2018-04-22T13:29:22.390Z,46.83
2018-04-22T13:31:51.348Z,46.21
2018-04-22T13:34:19.776Z,46.26
2018-04-22T13:36:48.240Z,46.43
2018-04-22T13:39:16.677Z,45.79
2018-04-22T13:41:45.112Z,45.37
2018-04-22T13:44:13.599Z,45.36
2018-04-22T13:46:42.113Z,45.51
2018-04-22T13:49:10.539Z,46.68
2018-04-22T13:51:39.019Z,46.39
2018-04-22T13:54:07.466Z,46.27
2018-04-22T13:56:35.902Z,44.71
2018-04-22T13:59:04.469Z,43.92
2018-04-22T14:01:32.909Z,45.24
2018-04-22T14:04:01.341Z,44.14
2018-04-22T14:06:29.944Z,45.16
2018-04-22T14:08:58.380Z,45.76
2018-04-22T14:11:26.810Z,45.54
2018-04-22T14:13:55.297Z,44.61
2018-04-22T14:16:23.753Z,44.96
2018-04-22T14:18:52.171Z,44.04
2018-04-22T14:21:20.651Z,44.43
2018-04-22T14:23:49.069Z,44.84
2018-04-22T14:26:17.496Z,44.77
2018-04-22T14:28:45.976Z,45.11
2018-04-22T14:31:14.404Z,45.94
2018-04-22T14:33:42.841Z,45.46
2018-04-22T14:36:11.360Z,46.10
2018-04-22T14:38:39.785Z,47.62
2018-04-22T14:41:08.209Z,47.60
2018-04-22T14:43:36.676Z,44.71
2018-04-22T14:46:13.928Z,44.75
2018-04-22T14:48:54.142Z,43.64
2018-04-22T14:51:22.557Z,44.35
2018-04-22T14:53:50.983Z,44.14
2018-04-22T14:56:19.453Z,42.48
2018-04-22T14:58:47.864Z,43.79
2018-04-22T15:01:16.282Z,44.99
2018-04-22T15:03:44.736Z,44.16
2018-04-22T15:06:13.173Z,43.94
2018-04-22T15:08:41.613Z,44.44
2018-04-22T15:11:10.076Z,43.61
2018-04-22T15:13:38.502Z,44.07
2018-04-22T15:16:06.938Z,43.79
2018-04-22T15:18:35.407Z,44.59
2018-04-22T15:21:03.922Z,43.57
2018-04-22T15:23:32.337Z,43.57
2018-04-22T15:26:00.784Z,42.51
2018-04-22T15:28:29.452Z,43.82
2018-04-22T15:30:58.146Z,43.95
2018-04-22T15:33:26.628Z,43.06
2018-04-22T15:35:55.149Z,43.44
2018-04-22T15:38:23.621Z,44.10
2018-04-22T15:40:52.307Z,43.33
2018-04-22T15:43:20.753Z,44.26
2018-04-22T15:45:49.174Z,42.53
2018-04-22T15:48:17.632Z,44.01
2018-04-22T15:50:46.043Z,43.62
2018-04-22T15:53:14.469Z,44.42
2018-04-22T15:55:42.995Z,44.00
2018-04-22T15:58:11.750Z,44.88
2018-04-22T16:00:40.441Z,43.71
2018-04-22T16:03:09.185Z,44.67
2018-04-22T16:05:37.644Z,44.91
2018-04-22T16:08:06.325Z,43.50
2018-04-22T16:10:34.848Z,42.96
2018-04-22T16:13:03.268Z,44.39
2018-04-22T16:15:31.864Z,42.96
2018-04-22T16:18:00.327Z,44.10
2018-04-22T16:20:28.736Z,43.51
2018-04-22T16:22:57.157Z,43.31
2018-04-22T16:25:25.612Z,43.30
2018-04-22T16:27:54.031Z,43.65
2018-04-22T16:30:22.448Z,43.50
2018-04-22T16:32:50.905Z,43.43
2018-04-22T16:35:19.373Z,42.92
2018-04-22T16:37:47.769Z,42.66
2018-04-22T16:40:16.229Z,42.78
2018-04-22T16:42:44.671Z,42.99
2018-04-22T16:45:13.088Z,43.97
2018-04-22T16:47:41.553Z,44.17
2018-04-22T16:50:09.980Z,43.50
2018-04-22T16:52:38.395Z,43.61
2018-04-22T16:55:06.870Z,43.56
2018-04-22T16:57:35.277Z,43.92
2018-04-22T17:00:03.740Z,44.26
2018-04-22T17:02:32.200Z,44.56
2018-04-22T17:05:00.621Z,44.58
2018-04-22T17:07:29.063Z,45.02
2018-04-22T17:09:57.544Z,44.64
2018-04-22T17:12:25.985Z,45.37
2018-04-22T17:14:54.462Z,45.23
2018-04-22T17:17:22.932Z,45.53
2018-04-22T17:19:51.348Z,46.90
2018-04-22T17:22:19.766Z,50.46
2018-04-22T17:24:48.241Z,57.01
2018-04-22T17:27:16.652Z,56.64
2018-04-22T17:29:45.064Z,60.50
2018-04-22T17:32:13.933Z,67.86
2018-04-22T17:34:42.351Z,73.25
2018-04-22T17:37:11.473Z,74.87
2018-04-22T17:39:39.938Z,71.12
2018-04-22T17:42:08.349Z,70.87
2018-04-22T17:44:36.761Z,72.82
2018-04-22T17:47:05.227Z,72.92
2018-04-22T17:49:33.647Z,74.66
2018-04-22T17:52:02.072Z,74.72
2018-04-22T17:54:30.534Z,73.80
2018-04-22T17:56:58.953Z,75.14
2018-04-22T17:59:27.359Z,76.42
2018-04-22T18:01:55.804Z,75.24
2018-04-22T18:04:24.208Z,73.83
2018-04-22T18:06:52.608Z,73.91
2018-04-22T18:09:21.073Z,73.05
2018-04-22T18:11:49.489Z,73.16
2018-04-22T18:14:17.896Z,73.31
2018-04-22T18:16:46.380Z,73.72
2018-04-22T18:19:14.796Z,73.02
2018-04-22T18:21:43.206Z,74.19
2018-04-22T18:24:11.671Z,74.83
2018-04-22T18:26:40.088Z,74.49
2018-04-22T18:29:08.493Z,72.99
2018-04-22T18:31:36.964Z,73.48
2018-04-22T18:34:05.389Z,71.41
2018-04-22T18:36:34.232Z,72.41
2018-04-22T18:39:02.676Z,70.34
2018-04-22T18:41:31.096Z,72.11
2018-04-22T18:43:59.496Z,72.50
2018-04-22T18:46:27.958Z,71.84
2018-04-22T18:48:56.372Z,71.87
2018-04-22T18:51:24.792Z,74.45
2018-04-22T18:53:53.257Z,74.06
2018-04-22T18:56:21.687Z,74.32
2018-04-22T18:58:50.100Z,75.01
2018-04-22T19:01:18.544Z,75.33
2018-04-22T19:03:46.949Z,74.63
2018-04-22T19:06:15.360Z,74.63
2018-04-22T19:08:43.820Z,74.41
2018-04-22T19:11:12.220Z,75.29
2018-04-22T19:13:40.627Z,74.58
2018-04-22T19:16:09.076Z,74.56
2018-04-22T19:18:37.489Z,74.58
2018-04-22T19:21:05.893Z,73.97
2018-04-22T19:23:34.348Z,73.61
2018-04-22T19:26:02.760Z,73.43
2018-04-22T19:31:05.797Z,74.52
2018-04-22T19:33:34.202Z,75.07
2018-04-22T19:36:02.613Z,75.36
2018-04-22T19:38:31.062Z,75.66
2018-04-22T19:40:59.469Z,75.33
2018-04-22T19:43:27.873Z,74.96
2018-04-22T19:45:56.308Z,76.30
2018-04-22T19:48:24.721Z,70.94
2018-04-22T19:50:53.129Z,73.99
2018-04-22T19:53:21.589Z,71.65
2018-04-22T19:55:50.004Z,72.77
2018-04-22T19:58:18.404Z,73.33
2018-04-22T20:00:46.852Z,74.06
2018-04-22T20:03:15.255Z,73.89
2018-04-22T20:05:43.652Z,74.29
2018-04-22T20:08:12.117Z,73.84
2018-04-22T20:10:40.538Z,73.59
2018-04-22T20:13:08.943Z,74.40
2018-04-22T20:15:37.481Z,75.47
2018-04-22T20:18:05.886Z,74.71
2018-04-22T20:20:34.290Z,74.67
2018-04-22T20:23:02.740Z,74.94
2018-04-22T20:25:31.153Z,75.35
2018-04-22T20:27:59.567Z,75.13
2018-04-22T20:30:28.019Z,75.44
2018-04-22T20:32:56.433Z,75.00
2018-04-22T20:35:24.840Z,74.23
2018-04-22T20:37:53.296Z,75.13
2018-04-22T20:40:21.710Z,77.13
2018-04-22T20:42:50.124Z,76.94
2018-04-22T20:45:18.576Z,76.20
2018-04-22T20:47:46.985Z,75.78
2018-04-22T20:50:15.404Z,75.82
2018-04-22T20:52:43.864Z,75.44
2018-04-22T20:55:12.284Z,74.92
2018-04-22T20:57:40.705Z,75.65
2018-04-22T21:00:09.158Z,75.84
2018-04-22T21:02:37.560Z,75.95
2018-04-22T21:05:05.980Z,75.10
2018-04-22T21:07:34.444Z,76.44
2018-04-22T21:10:02.871Z,76.38
2018-04-22T21:12:31.284Z,77.21
2018-04-22T21:14:59.742Z,76.53
2018-04-22T21:17:28.156Z,77.27
2018-04-22T21:19:56.573Z,76.39
2018-04-22T21:22:25.024Z,76.70
2018-04-22T21:24:53.439Z,77.43
2018-04-22T21:27:21.857Z,75.92
2018-04-22T21:29:50.315Z,76.96
2018-04-22T21:32:18.726Z,76.84
2018-04-22T21:34:47.137Z,77.61
2018-04-22T21:37:15.615Z,77.57
2018-04-22T21:39:44.032Z,78.01
2018-04-22T21:42:12.432Z,78.48
2018-04-22T21:44:40.877Z,78.44
2018-04-22T21:47:09.299Z,78.57
2018-04-22T21:49:37.718Z,78.08
2018-04-22T21:52:06.184Z,77.90
2018-04-22T21:54:34.592Z,78.39
2018-04-22T21:57:03.000Z,77.96
2018-04-22T21:59:31.455Z,78.00
2018-04-22T22:01:59.847Z,77.96
2018-04-22T22:04:28.304Z,78.48
2018-04-22T22:06:56.736Z,78.38
2018-04-22T22:09:25.202Z,78.81
2018-04-22T22:11:53.605Z,78.20
2018-04-22T22:14:22.053Z,78.08
2018-04-22T22:16:50.458Z,78.10
2018-04-22T22:19:18.900Z,77.85
2018-04-22T22:21:47.348Z,78.04
2018-04-22T22:24:15.747Z,77.66
2018-04-22T22:26:44.144Z,77.66
2018-04-22T22:29:12.594Z,78.03
2018-04-22T22:31:41.004Z,78.00
2018-04-22T22:34:09.412Z,77.90
2018-04-22T22:36:37.856Z,77.89
2018-04-22T22:39:06.298Z,77.69
2018-04-22T22:41:34.717Z,77.97
2018-04-22T22:44:03.165Z,77.70
2018-04-22T22:46:31.591Z,78.05
2018-04-22T22:49:00.004Z,78.38
2018-04-22T22:51:28.454Z,77.77
2018-04-22T22:53:56.866Z,78.41
2018-04-22T22:56:25.285Z,78.28
2018-04-22T22:58:53.732Z,78.50
2018-04-22T23:01:22.136Z,79.26
2018-04-22T23:03:50.544Z,79.17
2018-04-22T23:06:18.987Z,78.66
2018-04-22T23:08:47.388Z,78.35
2018-04-22T23:11:15.804Z,78.65
2018-04-22T23:13:44.251Z,79.18
2018-04-22T23:16:12.661Z,77.64
2018-04-22T23:18:41.064Z,78.26
2018-04-22T23:21:09.514Z,78.29
2018-04-22T23:23:37.917Z,78.26
2018-04-22T23:26:06.323Z,78.14
2018-04-22T23:28:34.768Z,78.15
2018-04-22T23:31:03.171Z,78.04
2018-04-22T23:33:31.576Z,77.78
2018-04-22T23:36:00.025Z,78.55
2018-04-22T23:38:28.433Z,78.43
2018-04-22T23:40:56.841Z,77.95
2018-04-22T23:43:25.296Z,78.09
2018-04-22T23:45:53.709Z,77.81
2018-04-22T23:48:22.124Z,78.39
2018-04-22T23:50:50.571Z,78.49
2018-04-22T23:53:18.988Z,78.26
2018-04-22T23:55:47.394Z,78.49
2018-04-22T23:58:15.840Z,77.85
